createdAt,value
2022-07-30T00:00:24.800Z,10.32
2022-07-30T00:01:19.007Z,7.56
2022-07-30T00:02:21.725Z,7.97
2022-07-30T00:03:24.441Z,9.06
2022-07-30T00:04:27.261Z,7.49
2022-07-30T00:05:29.930Z,6.70
2022-07-30T00:06:32.737Z,7.87
2022-07-30T00:07:35.373Z,6.98
2022-07-30T00:08:38.042Z,8.41
2022-07-30T00:09:40.814Z,7.16
2022-07-30T00:10:43.584Z,7.02
2022-07-30T00:11:47.898Z,9.21
2022-07-30T00:12:50.667Z,7.91
2022-07-30T00:13:53.441Z,8.50
2022-07-30T00:14:56.220Z,9.11
2022-07-30T00:15:58.880Z,8.37
2022-07-30T00:17:02.329Z,7.57
2022-07-30T00:18:06.067Z,10.55
2022-07-30T00:19:08.738Z,9.94
2022-07-30T00:20:11.517Z,8.60
2022-07-30T00:21:34.528Z,8.81
2022-07-30T00:22:20.228Z,8.08
2022-07-30T00:23:22.900Z,7.31
2022-07-30T00:24:26.074Z,8.08
2022-07-30T00:25:29.158Z,11.35
2022-07-30T00:26:32.347Z,10.58
2022-07-30T00:27:35.231Z,9.91
2022-07-30T00:28:39.314Z,9.53
2022-07-30T00:29:44.913Z,9.86
2022-07-30T00:30:46.949Z,10.10
2022-07-30T00:31:51.531Z,12.21
2022-07-30T00:32:55.422Z,15.16
2022-07-30T00:34:01.061Z,10.00
2022-07-30T00:35:03.836Z,9.66
2022-07-30T00:36:06.706Z,8.68
2022-07-30T00:37:09.482Z,9.24
2022-07-30T00:38:12.262Z,10.58
2022-07-30T00:39:15.024Z,12.50
2022-07-30T00:40:17.804Z,13.93
2022-07-30T00:41:20.570Z,10.84
2022-07-30T00:42:23.343Z,14.75
2022-07-30T00:43:26.022Z,12.86
2022-07-30T00:44:31.772Z,9.26
2022-07-30T00:45:34.511Z,10.49
2022-07-30T00:46:37.301Z,6.62
2022-07-30T00:47:40.171Z,10.51
2022-07-30T00:48:43.198Z,10.65
2022-07-30T00:49:46.128Z,10.24
2022-07-30T00:50:49.105Z,7.78
2022-07-30T00:51:52.086Z,9.39
2022-07-30T00:52:57.721Z,9.47
2022-07-30T00:54:00.593Z,10.48
2022-07-30T00:55:03.573Z,10.63
2022-07-30T00:56:06.344Z,10.30
2022-07-30T00:57:09.018Z,13.69
2022-07-30T00:58:11.998Z,9.38
2022-07-30T00:59:17.543Z,9.96
2022-07-30T01:00:23.172Z,11.67
2022-07-30T01:01:26.001Z,12.75
2022-07-30T01:02:28.987Z,10.46
2022-07-30T01:03:31.790Z,11.95
2022-07-30T01:04:34.568Z,11.55
2022-07-30T01:05:37.544Z,11.47
2022-07-30T01:06:40.414Z,7.57
2022-07-30T01:07:46.262Z,8.73
2022-07-30T01:08:49.027Z,10.07
2022-07-30T01:09:51.901Z,9.50
2022-07-30T01:10:54.683Z,12.46
2022-07-30T01:11:58.897Z,9.54
2022-07-30T01:13:01.872Z,11.46
2022-07-30T01:14:04.631Z,9.19
2022-07-30T01:15:08.019Z,7.68
2022-07-30T01:16:13.845Z,9.37
2022-07-30T01:17:16.543Z,10.69
2022-07-30T01:18:19.512Z,10.43
2022-07-30T01:19:22.288Z,13.65
2022-07-30T01:20:24.957Z,12.25
2022-07-30T01:21:28.030Z,11.45
2022-07-30T01:22:31.353Z,9.21
2022-07-30T01:23:34.393Z,9.77
2022-07-30T01:24:40.133Z,8.40
2022-07-30T01:25:43.324Z,10.19
2022-07-30T01:26:46.196Z,9.18
2022-07-30T01:27:49.176Z,7.42
2022-07-30T01:28:52.153Z,10.01
2022-07-30T01:29:55.227Z,8.48
2022-07-30T01:30:58.106Z,8.52
2022-07-30T01:32:01.148Z,9.23
2022-07-30T01:33:04.158Z,7.57
2022-07-30T01:34:07.042Z,9.12
2022-07-30T01:35:09.907Z,9.33
2022-07-30T01:36:12.687Z,9.75
2022-07-30T01:37:15.558Z,8.79
2022-07-30T01:38:21.099Z,8.98
2022-07-30T01:39:23.765Z,9.09
2022-07-30T01:40:26.646Z,8.10
2022-07-30T01:41:32.170Z,10.58
2022-07-30T01:42:35.148Z,9.51
2022-07-30T01:43:38.137Z,8.35
2022-07-30T01:44:43.764Z,10.68
2022-07-30T01:45:46.804Z,11.57
2022-07-30T01:46:49.719Z,9.92
2022-07-30T01:47:52.708Z,8.25
2022-07-30T01:48:55.712Z,8.71
2022-07-30T01:49:58.553Z,8.29
2022-07-30T01:51:01.422Z,10.17
2022-07-30T01:52:04.294Z,8.55
2022-07-30T01:53:12.804Z,11.22
2022-07-30T01:54:15.681Z,9.71
2022-07-30T01:55:18.452Z,14.25
2022-07-30T01:56:24.490Z,12.19
2022-07-30T01:57:25.738Z,9.67
2022-07-30T01:58:28.739Z,13.63
2022-07-30T01:59:31.492Z,9.54
2022-07-30T02:00:34.250Z,8.63
2022-07-30T02:01:37.130Z,10.05
2022-07-30T02:02:39.902Z,11.47
2022-07-30T02:03:42.730Z,8.85
2022-07-30T02:04:45.449Z,9.72
2022-07-30T02:05:48.119Z,8.70
2022-07-30T02:06:54.062Z,7.18
2022-07-30T02:08:00.009Z,6.66
2022-07-30T02:09:02.788Z,8.96
2022-07-30T02:10:09.961Z,10.49
2022-07-30T02:11:12.731Z,9.90
2022-07-30T02:12:15.604Z,8.00
2022-07-30T02:13:18.587Z,9.65
2022-07-30T02:14:21.461Z,8.18
2022-07-30T02:15:24.229Z,7.85
2022-07-30T02:16:27.109Z,8.02
2022-07-30T02:17:42.943Z,7.92
2022-07-30T02:18:46.065Z,8.96
2022-07-30T02:19:50.376Z,8.31
2022-07-30T02:20:53.146Z,6.50
2022-07-30T02:22:01.854Z,8.66
2022-07-30T02:23:04.734Z,9.34
2022-07-30T02:24:07.812Z,9.28
2022-07-30T02:25:10.484Z,8.56
2022-07-30T02:26:13.148Z,7.75
2022-07-30T02:27:16.021Z,7.17
2022-07-30T02:28:19.105Z,10.43
2022-07-30T02:29:21.772Z,6.27
2022-07-30T02:30:24.451Z,7.77
2022-07-30T02:31:27.174Z,6.85
2022-07-30T02:32:29.891Z,7.15
2022-07-30T02:33:32.964Z,8.92
2022-07-30T02:34:35.846Z,8.16
2022-07-30T02:35:38.513Z,6.06
2022-07-30T02:36:41.387Z,11.74
2022-07-30T02:37:44.572Z,6.45
2022-07-30T02:38:47.342Z,8.58
2022-07-30T02:39:50.110Z,17.37
2022-07-30T02:40:53.091Z,8.52
2022-07-30T02:41:56.066Z,5.41
2022-07-30T02:42:59.250Z,5.49
2022-07-30T02:44:02.226Z,5.69
2022-07-30T02:45:05.297Z,5.07
2022-07-30T02:46:08.303Z,4.22
2022-07-30T02:47:13.629Z,6.54
2022-07-30T02:48:34.703Z,8.08
2022-07-30T02:49:21.132Z,6.79
2022-07-30T02:50:23.983Z,5.48
2022-07-30T02:51:26.750Z,7.95
2022-07-30T02:52:29.928Z,7.86
2022-07-30T02:53:33.323Z,8.11
2022-07-30T02:54:36.499Z,8.50
2022-07-30T02:55:39.679Z,11.25
2022-07-30T02:56:42.665Z,7.45
2022-07-30T02:57:45.548Z,6.58
2022-07-30T02:58:48.419Z,8.53
2022-07-30T02:59:51.387Z,7.24
2022-07-30T03:00:54.354Z,7.53
2022-07-30T03:02:00.387Z,8.18
2022-07-30T03:03:06.151Z,9.81
2022-07-30T03:04:08.922Z,8.91
2022-07-30T03:05:11.710Z,7.74
2022-07-30T03:06:14.366Z,8.24
2022-07-30T03:07:17.241Z,6.33
2022-07-30T03:08:20.245Z,9.22
2022-07-30T03:09:22.895Z,6.78
2022-07-30T03:10:26.172Z,6.03
2022-07-30T03:11:29.162Z,7.87
2022-07-30T03:12:32.328Z,7.34
2022-07-30T03:13:35.531Z,6.12
2022-07-30T03:14:41.149Z,5.73
2022-07-30T03:15:44.331Z,7.27
2022-07-30T03:16:47.103Z,5.54
2022-07-30T03:17:50.089Z,6.55
2022-07-30T03:18:53.053Z,5.38
2022-07-30T03:19:56.035Z,8.45
2022-07-30T03:20:59.115Z,10.28
2022-07-30T03:22:01.993Z,6.68
2022-07-30T03:23:08.244Z,6.53
2022-07-30T03:24:11.022Z,5.64
2022-07-30T03:25:13.686Z,5.79
2022-07-30T03:26:16.560Z,9.62
2022-07-30T03:27:21.993Z,5.78
2022-07-30T03:28:24.667Z,5.51
2022-07-30T03:29:27.542Z,5.05
2022-07-30T03:30:30.217Z,8.34
2022-07-30T03:31:36.226Z,7.50
2022-07-30T03:32:37.291Z,5.24
2022-07-30T03:33:43.338Z,6.92
2022-07-30T03:34:49.086Z,6.68
2022-07-30T03:35:52.270Z,5.71
2022-07-30T03:36:54.930Z,6.68
2022-07-30T03:37:58.011Z,5.29
2022-07-30T03:39:00.783Z,5.58
2022-07-30T03:40:03.455Z,7.02
2022-07-30T03:41:06.440Z,5.86
2022-07-30T03:42:12.177Z,5.19
2022-07-30T03:43:32.108Z,7.62
2022-07-30T03:44:19.561Z,5.95
2022-07-30T03:45:22.331Z,6.30
2022-07-30T03:46:25.112Z,6.73
2022-07-30T03:47:31.050Z,9.47
2022-07-30T03:48:33.925Z,7.83
2022-07-30T03:49:37.106Z,6.12
2022-07-30T03:50:39.978Z,5.63
2022-07-30T03:51:45.630Z,7.14
2022-07-30T03:52:48.287Z,7.73
2022-07-30T03:53:51.082Z,6.90
2022-07-30T03:54:56.507Z,5.70
2022-07-30T03:55:59.480Z,6.20
2022-07-30T03:57:02.693Z,4.68
2022-07-30T03:58:05.847Z,5.63
2022-07-30T03:59:11.586Z,5.43
2022-07-30T04:00:14.161Z,6.66
2022-07-30T04:01:17.158Z,5.50
2022-07-30T04:02:26.460Z,5.49
2022-07-30T04:03:29.349Z,7.27
2022-07-30T04:04:32.211Z,6.49
2022-07-30T04:05:37.441Z,4.92
2022-07-30T04:06:39.503Z,6.45
2022-07-30T04:07:45.059Z,6.15
2022-07-30T04:08:47.392Z,6.17
2022-07-30T04:09:50.468Z,4.98
2022-07-30T04:10:53.650Z,7.58
2022-07-30T04:12:02.793Z,5.92
2022-07-30T04:13:09.271Z,6.45
2022-07-30T04:14:10.159Z,6.44
2022-07-30T04:16:04.942Z,4.60
2022-07-30T04:16:41.294Z,4.77
2022-07-30T04:17:21.901Z,4.80
2022-07-30T04:18:27.697Z,6.01
2022-07-30T04:19:30.673Z,6.86
2022-07-30T04:20:39.801Z,7.09
2022-07-30T04:21:42.570Z,5.54
2022-07-30T04:22:45.343Z,6.86
2022-07-30T04:24:03.065Z,7.97
2022-07-30T04:24:52.725Z,4.85
2022-07-30T04:25:55.714Z,5.14
2022-07-30T04:26:58.975Z,5.92
2022-07-30T04:28:03.819Z,6.51
2022-07-30T04:29:06.579Z,5.68
2022-07-30T04:30:09.471Z,6.58
2022-07-30T04:31:12.482Z,6.52
2022-07-30T04:32:15.215Z,5.83
2022-07-30T04:33:18.283Z,6.28
2022-07-30T04:34:24.340Z,6.15
2022-07-30T04:35:49.891Z,5.42
2022-07-30T04:36:31.833Z,5.71
2022-07-30T04:37:34.688Z,5.90
2022-07-30T04:38:37.774Z,7.04
2022-07-30T04:39:40.763Z,6.75
2022-07-30T04:40:43.628Z,8.26
2022-07-30T04:41:49.761Z,6.34
2022-07-30T04:42:51.660Z,6.76
2022-07-30T04:43:54.703Z,6.66
2022-07-30T04:44:57.788Z,6.64
2022-07-30T04:46:00.907Z,7.18
2022-07-30T04:47:03.935Z,5.16
2022-07-30T04:48:07.040Z,6.82
2022-07-30T04:49:10.095Z,7.99
2022-07-30T04:50:12.874Z,7.51
2022-07-30T04:51:16.175Z,7.69
2022-07-30T04:52:19.043Z,7.29
2022-07-30T04:53:21.712Z,7.42
2022-07-30T04:54:24.475Z,7.42
2022-07-30T04:55:29.299Z,6.64
2022-07-30T04:56:32.167Z,5.24
2022-07-30T04:57:35.151Z,6.45
2022-07-30T04:58:38.233Z,6.45
2022-07-30T04:59:41.201Z,6.52
2022-07-30T05:00:44.293Z,6.12
2022-07-30T05:01:47.383Z,6.36
2022-07-30T05:02:50.357Z,5.66
2022-07-30T05:03:53.217Z,6.52
2022-07-30T05:04:57.246Z,6.26
2022-07-30T05:06:01.948Z,7.07
2022-07-30T05:07:05.367Z,4.72
2022-07-30T05:08:07.989Z,3.60
2022-07-30T05:09:11.181Z,3.61
2022-07-30T05:10:13.948Z,3.90
2022-07-30T05:11:16.931Z,4.02
2022-07-30T05:12:19.818Z,4.29
2022-07-30T05:13:23.099Z,5.77
2022-07-30T05:14:27.520Z,4.92
2022-07-30T05:15:37.215Z,5.98
2022-07-30T05:16:34.678Z,5.75
2022-07-30T05:17:37.770Z,3.82
2022-07-30T05:18:40.738Z,5.00
2022-07-30T05:19:44.019Z,4.25
2022-07-30T05:20:47.208Z,4.40
2022-07-30T05:21:50.290Z,4.46
2022-07-30T05:22:53.372Z,4.88
2022-07-30T05:23:56.543Z,5.22
2022-07-30T05:24:59.926Z,5.09
2022-07-30T05:26:02.927Z,5.78
2022-07-30T05:27:05.672Z,6.72
2022-07-30T05:28:08.768Z,7.32
2022-07-30T05:29:19.598Z,5.38
2022-07-30T05:30:18.600Z,5.73
2022-07-30T05:31:21.531Z,6.53
2022-07-30T05:32:27.046Z,8.38
2022-07-30T05:33:41.079Z,3.67
2022-07-30T05:34:39.634Z,4.14
2022-07-30T05:35:42.712Z,5.69
2022-07-30T05:36:45.698Z,6.05
2022-07-30T05:37:48.970Z,4.70
2022-07-30T05:38:52.165Z,4.48
2022-07-30T05:40:02.214Z,5.06
2022-07-30T05:41:00.566Z,4.89
2022-07-30T05:42:03.946Z,3.36
2022-07-30T05:43:06.723Z,2.98
2022-07-30T05:44:09.592Z,4.18
2022-07-30T05:45:12.568Z,3.37
2022-07-30T05:46:15.308Z,3.56
2022-07-30T05:47:18.103Z,4.41
2022-07-30T05:48:20.983Z,4.04
2022-07-30T05:49:23.920Z,4.56
2022-07-30T05:50:26.739Z,4.32
2022-07-30T05:51:29.821Z,5.82
2022-07-30T05:52:32.482Z,8.44
2022-07-30T05:53:36.289Z,9.94
2022-07-30T05:54:39.369Z,7.79
2022-07-30T05:55:42.952Z,7.17
2022-07-30T05:56:45.833Z,8.12
2022-07-30T05:57:48.810Z,9.52
2022-07-30T05:58:52.003Z,7.16
2022-07-30T05:59:55.173Z,10.25
2022-07-30T06:00:58.449Z,9.32
2022-07-30T06:02:01.717Z,7.73
2022-07-30T06:03:04.712Z,9.81
2022-07-30T06:04:07.966Z,10.50
2022-07-30T06:05:11.082Z,11.12
2022-07-30T06:06:16.736Z,9.89
2022-07-30T06:07:19.084Z,9.08
2022-07-30T06:08:21.955Z,10.27
2022-07-30T06:09:36.519Z,7.72
2022-07-30T06:10:29.442Z,13.04
2022-07-30T06:11:32.519Z,19.12
2022-07-30T06:12:35.403Z,8.49
2022-07-30T06:13:39.107Z,8.58
2022-07-30T06:14:42.063Z,12.79
2022-07-30T06:15:50.785Z,11.81
2022-07-30T06:16:53.754Z,11.63
2022-07-30T06:17:58.295Z,9.78
2022-07-30T06:19:01.660Z,11.58
2022-07-30T06:20:04.937Z,12.30
2022-07-30T06:21:08.026Z,11.76
2022-07-30T06:23:29.441Z,8.34
2022-07-30T06:24:32.308Z,7.05
2022-07-30T06:25:35.800Z,8.48
2022-07-30T06:26:40.511Z,10.45
2022-07-30T06:27:43.592Z,11.55
2022-07-30T06:28:58.649Z,12.01
2022-07-30T06:30:01.632Z,9.43
2022-07-30T06:31:04.399Z,9.67
2022-07-30T06:32:07.284Z,10.45
2022-07-30T06:33:10.460Z,10.90
2022-07-30T06:34:13.234Z,12.74
2022-07-30T06:35:16.424Z,10.52
2022-07-30T06:36:19.089Z,8.28
2022-07-30T06:37:21.752Z,9.29
2022-07-30T06:38:26.161Z,8.11
2022-07-30T06:39:57.073Z,10.66
2022-07-30T06:40:33.554Z,9.83
2022-07-30T06:41:36.630Z,7.72
2022-07-30T06:42:39.812Z,11.46
2022-07-30T06:43:42.689Z,24.35
2022-07-30T06:44:45.668Z,9.40
2022-07-30T06:45:48.648Z,11.62
2022-07-30T06:46:51.620Z,12.02
2022-07-30T06:47:54.603Z,11.71
2022-07-30T06:48:57.765Z,11.36
2022-07-30T06:50:00.760Z,8.51
2022-07-30T06:51:03.654Z,7.54
2022-07-30T06:52:06.709Z,10.51
2022-07-30T06:53:09.699Z,9.65
2022-07-30T06:54:12.468Z,8.89
2022-07-30T06:55:15.431Z,10.36
2022-07-30T06:56:18.112Z,10.24
2022-07-30T06:57:20.890Z,9.24
2022-07-30T06:58:25.543Z,10.89
2022-07-30T06:59:27.964Z,8.35
2022-07-30T07:00:31.147Z,12.58
2022-07-30T07:01:34.148Z,12.34
2022-07-30T07:02:37.090Z,8.85
2022-07-30T07:03:40.854Z,10.05
2022-07-30T07:04:44.014Z,8.25
2022-07-30T07:05:46.948Z,10.88
2022-07-30T07:06:50.037Z,10.80
2022-07-30T07:07:59.162Z,9.95
2022-07-30T07:08:57.315Z,10.63
2022-07-30T07:10:00.207Z,9.74
2022-07-30T07:11:03.059Z,11.36
2022-07-30T07:12:05.943Z,11.17
2022-07-30T07:13:09.113Z,10.92
2022-07-30T07:14:11.891Z,11.02
2022-07-30T07:15:14.969Z,11.62
2022-07-30T07:16:17.948Z,11.56
2022-07-30T07:17:20.991Z,12.05
2022-07-30T07:18:23.690Z,10.90
2022-07-30T07:20:01.074Z,8.82
2022-07-30T07:20:33.954Z,14.10
2022-07-30T07:21:36.842Z,11.44
2022-07-30T07:22:39.497Z,10.08
2022-07-30T07:23:42.594Z,11.35
2022-07-30T07:24:45.252Z,11.94
2022-07-30T07:25:47.926Z,11.20
2022-07-30T07:26:50.704Z,7.05
2022-07-30T07:28:11.771Z,9.60
2022-07-30T07:29:01.058Z,10.64
2022-07-30T07:30:05.377Z,11.99
2022-07-30T07:31:06.589Z,10.39
2022-07-30T07:32:09.277Z,13.73
2022-07-30T07:33:12.178Z,15.27
2022-07-30T07:34:17.252Z,15.84
2022-07-30T07:35:20.143Z,13.80
2022-07-30T07:36:23.109Z,12.56
2022-07-30T07:37:26.091Z,10.58
2022-07-30T07:38:28.758Z,12.73
2022-07-30T07:39:34.404Z,15.09
2022-07-30T07:40:37.371Z,14.33
2022-07-30T07:41:48.542Z,15.00
2022-07-30T07:42:44.968Z,15.39
2022-07-30T07:43:47.940Z,14.96
2022-07-30T07:44:50.921Z,12.96
2022-07-30T07:45:53.971Z,15.54
2022-07-30T07:46:56.896Z,11.63
2022-07-30T07:47:59.745Z,18.29
2022-07-30T07:49:02.812Z,14.22
2022-07-30T07:50:05.702Z,10.57
2022-07-30T07:51:09.687Z,13.37
2022-07-30T07:52:15.242Z,12.54
2022-07-30T07:53:20.885Z,10.78
2022-07-30T07:54:24.274Z,13.38
2022-07-30T07:55:31.647Z,14.49
2022-07-30T07:56:34.320Z,14.19
2022-07-30T07:57:38.722Z,17.04
2022-07-30T07:58:44.364Z,15.29
2022-07-30T07:59:47.240Z,15.03
2022-07-30T08:00:52.070Z,14.18
2022-07-30T08:01:54.965Z,13.55
2022-07-30T08:02:57.911Z,13.63
2022-07-30T08:04:00.780Z,18.65
2022-07-30T08:05:06.632Z,17.02
2022-07-30T08:07:28.075Z,13.01
2022-07-30T08:08:30.818Z,9.82
2022-07-30T08:09:43.946Z,12.67
2022-07-30T08:10:38.103Z,12.79
2022-07-30T08:11:41.087Z,14.12
2022-07-30T08:12:44.170Z,12.78
2022-07-30T08:13:52.433Z,13.38
2022-07-30T08:14:51.674Z,13.34
2022-07-30T08:15:54.533Z,13.21
2022-07-30T08:16:57.469Z,11.64
2022-07-30T08:18:00.387Z,11.02
2022-07-30T08:19:03.248Z,14.20
2022-07-30T08:20:06.128Z,12.51
2022-07-30T08:21:09.101Z,11.45
2022-07-30T08:22:11.983Z,12.99
2022-07-30T08:23:14.958Z,13.33
2022-07-30T08:24:17.621Z,11.88
2022-07-30T08:25:22.299Z,12.78
2022-07-30T08:26:24.911Z,12.73
2022-07-30T08:27:27.587Z,12.43
2022-07-30T08:28:36.073Z,14.78
2022-07-30T08:29:34.870Z,13.19
2022-07-30T08:30:37.740Z,12.88
2022-07-30T08:31:40.853Z,11.88
2022-07-30T08:32:43.697Z,13.47
2022-07-30T08:33:46.667Z,14.41
2022-07-30T08:34:49.542Z,11.45
2022-07-30T08:35:55.748Z,12.89
2022-07-30T08:36:57.239Z,12.24
2022-07-30T08:38:00.115Z,12.12
2022-07-30T08:39:03.094Z,12.26
2022-07-30T08:40:05.976Z,10.38
2022-07-30T08:41:08.947Z,15.04
2022-07-30T08:42:11.711Z,13.29
2022-07-30T08:43:14.587Z,15.14
2022-07-30T08:44:17.364Z,13.35
2022-07-30T08:45:20.233Z,10.95
2022-07-30T08:46:24.543Z,14.58
2022-07-30T08:47:27.329Z,17.12
2022-07-30T08:48:30.088Z,12.06
2022-07-30T08:49:32.959Z,13.99
2022-07-30T08:50:41.364Z,12.61
2022-07-30T08:51:44.344Z,13.90
2022-07-30T08:52:47.221Z,15.88
2022-07-30T08:53:50.090Z,15.83
2022-07-30T08:54:53.076Z,14.78
2022-07-30T08:55:58.680Z,14.99
2022-07-30T08:57:00.564Z,16.05
2022-07-30T08:58:04.461Z,14.24
2022-07-30T08:59:07.329Z,14.56
2022-07-30T09:00:21.983Z,13.05
2022-07-30T09:01:24.863Z,16.24
2022-07-30T09:02:29.422Z,17.00
2022-07-30T09:03:32.044Z,15.41
2022-07-30T09:04:35.015Z,13.97
2022-07-30T09:05:37.998Z,17.33
2022-07-30T09:06:40.923Z,17.67
2022-07-30T09:07:45.484Z,16.24
2022-07-30T09:08:48.462Z,14.47
2022-07-30T09:09:51.648Z,14.90
2022-07-30T09:10:54.523Z,15.31
2022-07-30T09:11:57.494Z,15.98
2022-07-30T09:13:00.574Z,13.55
2022-07-30T09:14:05.894Z,14.68
2022-07-30T09:15:08.066Z,13.83
2022-07-30T09:16:10.973Z,15.99
2022-07-30T09:17:13.921Z,13.42
2022-07-30T09:18:17.009Z,14.62
2022-07-30T09:19:19.973Z,16.16
2022-07-30T09:20:22.746Z,13.24
2022-07-30T09:21:25.422Z,13.25
2022-07-30T09:22:28.194Z,13.19
2022-07-30T09:23:30.858Z,14.85
2022-07-30T09:24:33.843Z,17.16
2022-07-30T09:25:36.821Z,15.48
2022-07-30T09:26:39.587Z,14.35
2022-07-30T09:27:42.463Z,17.37
2022-07-30T09:28:45.229Z,16.29
2022-07-30T09:29:47.898Z,16.77
2022-07-30T09:30:50.771Z,18.59
2022-07-30T09:31:53.447Z,19.70
2022-07-30T09:32:56.217Z,13.53
2022-07-30T09:33:58.993Z,16.35
2022-07-30T09:35:01.663Z,15.39
2022-07-30T09:36:06.172Z,18.91
2022-07-30T09:37:09.148Z,20.55
2022-07-30T09:38:11.818Z,18.18
2022-07-30T09:39:14.793Z,17.18
2022-07-30T09:40:17.670Z,19.89
2022-07-30T09:41:38.318Z,15.75
2022-07-30T09:42:24.949Z,15.88
2022-07-30T09:43:28.193Z,17.88
2022-07-30T09:44:31.121Z,16.45
2022-07-30T09:45:34.735Z,15.95
2022-07-30T09:46:38.104Z,14.51
2022-07-30T09:47:40.766Z,16.23
2022-07-30T09:48:43.558Z,18.28
2022-07-30T09:49:48.966Z,15.86
2022-07-30T09:50:52.152Z,15.83
2022-07-30T09:51:56.007Z,15.21
2022-07-30T09:53:12.110Z,15.84
2022-07-30T09:54:15.008Z,12.81
2022-07-30T09:55:18.212Z,13.69
2022-07-30T09:56:20.961Z,13.34
2022-07-30T09:57:27.450Z,13.91
2022-07-30T09:58:29.577Z,12.51
2022-07-30T09:59:44.128Z,13.29
2022-07-30T10:00:46.855Z,14.06
2022-07-30T10:01:54.880Z,14.25
2022-07-30T10:02:54.082Z,11.94
2022-07-30T10:04:08.938Z,12.82
2022-07-30T10:05:14.163Z,14.45
2022-07-30T10:06:17.657Z,16.87
2022-07-30T10:07:25.444Z,16.49
2022-07-30T10:08:25.969Z,14.46
2022-07-30T10:09:29.353Z,16.41
2022-07-30T10:10:32.329Z,15.63
2022-07-30T10:11:35.102Z,13.05
2022-07-30T10:12:39.034Z,18.39
2022-07-30T10:13:45.575Z,15.26
2022-07-30T10:14:46.517Z,12.62
2022-07-30T10:15:49.371Z,13.05
2022-07-30T10:16:52.337Z,16.82
2022-07-30T10:17:55.110Z,13.77
2022-07-30T10:18:58.395Z,13.95
2022-07-30T10:20:08.267Z,17.57
2022-07-30T10:21:07.932Z,16.41
2022-07-30T10:22:11.549Z,14.69
2022-07-30T10:23:15.885Z,13.32
2022-07-30T10:24:18.508Z,16.15
2022-07-30T10:25:23.295Z,19.19
2022-07-30T10:26:27.326Z,17.01
2022-07-30T10:27:32.234Z,15.27
2022-07-30T10:28:39.358Z,17.30
2022-07-30T10:29:39.225Z,15.04
2022-07-30T10:30:43.545Z,15.89
2022-07-30T10:31:48.663Z,16.09
2022-07-30T10:32:52.612Z,17.85
2022-07-30T10:33:58.208Z,16.91
2022-07-30T10:35:00.861Z,19.37
2022-07-30T10:36:03.847Z,20.01
2022-07-30T10:37:07.694Z,18.70
2022-07-30T10:38:13.853Z,17.58
2022-07-30T10:39:14.928Z,18.76
2022-07-30T10:40:17.592Z,19.41
2022-07-30T10:41:42.109Z,19.98
2022-07-30T10:42:24.781Z,17.28
2022-07-30T10:43:31.806Z,18.82
2022-07-30T10:44:32.167Z,18.83
2022-07-30T10:45:34.941Z,18.82
2022-07-30T10:46:39.353Z,17.90
2022-07-30T10:47:44.787Z,17.35
2022-07-30T10:48:46.692Z,13.29
2022-07-30T10:49:49.415Z,14.72
2022-07-30T10:50:53.707Z,19.49
2022-07-30T10:51:57.385Z,18.02
2022-07-30T10:53:00.493Z,18.57
2022-07-30T10:54:03.368Z,18.80
2022-07-30T10:55:06.238Z,17.65
2022-07-30T10:56:09.322Z,17.68
2022-07-30T10:57:14.696Z,20.27
2022-07-30T10:58:17.956Z,20.41
2022-07-30T10:59:23.986Z,21.67
2022-07-30T11:00:25.626Z,24.38
2022-07-30T11:01:30.451Z,21.58
2022-07-30T11:02:32.807Z,20.43
2022-07-30T11:03:41.501Z,17.51
2022-07-30T11:04:40.610Z,22.50
2022-07-30T11:05:45.486Z,21.48
2022-07-30T11:06:48.821Z,19.64
2022-07-30T11:07:52.511Z,19.69
2022-07-30T11:08:57.096Z,21.43
2022-07-30T11:10:05.758Z,20.16
2022-07-30T11:11:19.286Z,22.67
2022-07-30T11:12:09.230Z,23.01
2022-07-30T11:13:13.739Z,21.65
2022-07-30T11:14:16.518Z,19.45
2022-07-30T11:15:19.825Z,18.02
2022-07-30T11:16:22.672Z,19.54
2022-07-30T11:17:25.451Z,18.53
2022-07-30T11:18:28.622Z,14.38
2022-07-30T11:19:56.838Z,14.85
2022-07-30T11:20:38.901Z,16.96
2022-07-30T11:21:41.652Z,19.76
2022-07-30T11:22:46.481Z,18.22
2022-07-30T11:23:56.926Z,20.64
2022-07-30T11:24:59.596Z,21.11
2022-07-30T11:27:21.737Z,18.11
2022-07-30T11:28:24.405Z,16.65
2022-07-30T11:29:33.036Z,17.08
2022-07-30T11:30:31.479Z,18.31
2022-07-30T11:31:54.827Z,18.90
2022-07-30T11:32:38.662Z,17.76
2022-07-30T11:33:41.428Z,17.89
2022-07-30T11:34:44.419Z,19.97
2022-07-30T11:35:47.385Z,20.35
2022-07-30T11:36:50.376Z,16.96
2022-07-30T11:37:53.043Z,19.32
2022-07-30T11:38:57.172Z,17.29
2022-07-30T11:40:00.165Z,18.49
2022-07-30T11:41:02.889Z,16.32
2022-07-30T11:42:05.757Z,18.36
2022-07-30T11:43:08.431Z,20.62
2022-07-30T11:44:11.108Z,17.27
2022-07-30T11:45:13.870Z,21.50
2022-07-30T11:46:16.735Z,17.60
2022-07-30T11:47:19.421Z,15.34
2022-07-30T11:48:22.297Z,16.35
2022-07-30T11:49:25.038Z,19.00
2022-07-30T11:50:27.760Z,18.71
2022-07-30T11:51:30.608Z,20.98
2022-07-30T11:52:33.686Z,17.22
2022-07-30T11:53:36.568Z,17.38
2022-07-30T11:54:39.541Z,19.44
2022-07-30T11:55:42.421Z,19.20
2022-07-30T11:56:45.183Z,15.65
2022-07-30T11:57:59.837Z,16.55
2022-07-30T11:59:02.610Z,18.78
2022-07-30T12:00:05.387Z,21.39
2022-07-30T12:01:09.499Z,19.59
2022-07-30T12:02:12.462Z,23.11
2022-07-30T12:03:15.364Z,16.61
2022-07-30T12:04:18.002Z,18.12
2022-07-30T12:05:20.774Z,16.22
2022-07-30T12:06:23.658Z,15.85
2022-07-30T12:07:26.420Z,17.78
2022-07-30T12:08:34.077Z,18.87
2022-07-30T12:09:33.608Z,19.46
2022-07-30T12:10:36.586Z,19.92
2022-07-30T12:11:39.253Z,15.82
2022-07-30T12:12:42.036Z,17.17
2022-07-30T12:13:46.143Z,13.24
2022-07-30T12:14:49.007Z,16.90
2022-07-30T12:15:51.803Z,15.26
2022-07-30T12:16:54.568Z,21.07
2022-07-30T12:18:24.083Z,16.56
2022-07-30T12:19:01.550Z,15.28
2022-07-30T12:20:06.983Z,19.60
2022-07-30T12:21:09.738Z,14.95
2022-07-30T12:22:12.407Z,14.46
2022-07-30T12:23:15.076Z,12.28
2022-07-30T12:24:19.286Z,17.73
2022-07-30T12:25:21.945Z,16.14
2022-07-30T12:26:24.694Z,18.35
2022-07-30T12:27:28.929Z,16.61
2022-07-30T12:28:34.463Z,17.21
2022-07-30T12:29:37.234Z,19.01
2022-07-30T12:30:40.008Z,18.52
2022-07-30T12:31:42.777Z,18.68
2022-07-30T12:32:45.451Z,16.42
2022-07-30T12:33:51.087Z,14.80
2022-07-30T12:34:53.866Z,14.71
2022-07-30T12:35:56.637Z,13.95
2022-07-30T12:36:59.821Z,16.08
2022-07-30T12:38:02.692Z,14.49
2022-07-30T12:39:05.458Z,15.88
2022-07-30T12:40:12.936Z,17.25
2022-07-30T12:41:12.252Z,15.12
2022-07-30T12:42:14.910Z,14.63
2022-07-30T12:43:17.778Z,15.95
2022-07-30T12:44:20.654Z,18.76
2022-07-30T12:45:24.661Z,21.91
2022-07-30T12:46:27.353Z,15.81
2022-07-30T12:47:30.000Z,14.21
2022-07-30T12:48:35.639Z,16.83
2022-07-30T12:49:49.427Z,19.87
2022-07-30T12:50:45.688Z,16.94
2022-07-30T12:51:48.563Z,19.62
2022-07-30T12:52:51.330Z,19.55
2022-07-30T12:53:54.106Z,19.18
2022-07-30T12:54:56.773Z,19.51
2022-07-30T12:55:59.851Z,20.72
2022-07-30T12:57:03.251Z,14.97
2022-07-30T12:58:08.839Z,17.40
2022-07-30T12:59:10.731Z,15.26
2022-07-30T13:00:13.607Z,13.31
2022-07-30T13:01:16.687Z,15.15
2022-07-30T13:02:22.627Z,17.27
2022-07-30T13:03:26.841Z,16.20
2022-07-30T13:04:29.618Z,13.57
2022-07-30T13:05:32.380Z,12.54
2022-07-30T13:06:37.811Z,16.05
2022-07-30T13:07:40.586Z,16.21
2022-07-30T13:08:43.362Z,13.72
2022-07-30T13:09:45.941Z,15.10
2022-07-30T13:10:52.790Z,15.19
2022-07-30T13:11:55.568Z,13.86
2022-07-30T13:12:58.460Z,17.25
2022-07-30T13:14:01.212Z,13.79
2022-07-30T13:15:03.985Z,14.01
2022-07-30T13:16:18.838Z,12.88
2022-07-30T13:17:24.692Z,15.72
2022-07-30T13:18:27.363Z,17.38
2022-07-30T13:19:29.922Z,20.45
2022-07-30T13:20:32.699Z,18.93
2022-07-30T13:21:35.365Z,17.48
2022-07-30T13:22:38.030Z,16.42
2022-07-30T13:23:40.600Z,11.26
2022-07-30T13:24:43.478Z,14.00
2022-07-30T13:25:46.142Z,16.27
2022-07-30T13:26:50.587Z,15.58
2022-07-30T13:27:53.021Z,14.91
2022-07-30T13:28:59.896Z,18.48
2022-07-30T13:29:59.895Z,16.37
2022-07-30T13:31:02.668Z,13.65
2022-07-30T13:32:05.232Z,17.25
2022-07-30T13:33:08.007Z,15.58
2022-07-30T13:34:10.682Z,14.85
2022-07-30T13:35:13.447Z,13.98
2022-07-30T13:36:16.020Z,16.38
2022-07-30T13:37:18.687Z,15.34
2022-07-30T13:38:21.359Z,17.83
2022-07-30T13:39:24.135Z,16.32
2022-07-30T13:40:26.900Z,12.52
2022-07-30T13:41:29.674Z,15.18
2022-07-30T13:42:32.448Z,15.55
2022-07-30T13:43:35.112Z,13.54
2022-07-30T13:44:37.888Z,13.79
2022-07-30T13:45:40.502Z,15.68
2022-07-30T13:46:43.025Z,19.58
2022-07-30T13:47:45.690Z,13.45
2022-07-30T13:48:51.052Z,14.99
2022-07-30T13:49:56.462Z,14.16
2022-07-30T13:50:59.332Z,14.66
2022-07-30T13:52:02.104Z,15.15
2022-07-30T13:53:04.794Z,13.22